Time,TemperatureF,DewpointF,PressureIn,WindDirection,WindDirectionDegrees,WindSpeedMPH,WindSpeedGustMPH,Humidity,HourlyPrecipIn,Conditions,Clouds,dailyrainin,SoftwareType,DateUTC
2013-04-25 00:01:00,63.9,61.8,30.10,SW,221,3.0,9.0,93,0.00,,,0.00,WUHU216DAVISVP2,2013-04-25 04:01:00,
2013-04-25 00:06:00,63.9,61.8,30.10,SSW,207,6.0,9.0,93,0.00,,,0.00,WUHU216DAVISVP2,2013-04-25 04:06:00,
2013-04-25 00:11:00,63.8,61.7,30.10,SW,223,6.0,6.0,93,0.00,,,0.00,WUHU216DAVISVP2,2013-04-25 04:11:00,
2013-04-25 00:16:00,63.8,61.7,30.09,SSW,207,6.0,6.0,93,0.00,,,0.00,WUHU216DAVISVP2,2013-04-25 04:16:00,
2013-04-25 00:21:00,63.8,61.7,30.09,SW,224,3.0,6.0,93,0.00,,,0.00,WUHU216DAVISVP2,2013-04-25 04:21:00,
2013-04-25 00:26:00,63.7,61.9,30.09,SW,214,6.0,9.0,94,0.00,,,0.00,WUHU216DAVISVP2,2013-04-25 04:26:00,
2013-04-25 00:31:00,63.7,61.9,30.09,SSW,210,3.0,9.0,94,0.00,,,0.00,WUHU216DAVISVP2,2013-04-25 04:31:00,
2013-04-25 00:36:00,63.7,61.9,30.09,SSW,212,3.0,9.0,94,0.00,,,0.00,WUHU216DAVISVP2,2013-04-25 04:36:00,
2013-04-25 00:41:00,63.6,61.8,30.09,SW,235,3.0,6.0,94,0.00,,,0.00,WUHU216DAVISVP2,2013-04-25 04:41:00,
2013-04-25 00:46:00,63.5,61.7,30.09,SW,221,3.0,6.0,94,0.00,,,0.00,WUHU216DAVISVP2,2013-04-25 04:46:00,
2013-04-25 00:51:00,63.5,61.7,30.08,SSW,203,3.0,6.0,94,0.00,,,0.00,WUHU216DAVISVP2,2013-04-25 04:51:00,
2013-04-25 00:56:00,63.5,61.7,30.09,SW,222,3.0,6.0,94,0.00,,,0.00,WUHU216DAVISVP2,2013-04-25 04:56:00,
2013-04-25 01:01:00,63.4,61.6,30.09,SW,229,0.0,6.0,94,0.00,,,0.00,WUHU216DAVISVP2,2013-04-25 05:01:00,
2013-04-25 01:06:00,63.4,61.6,30.09,SW,229,0.0,6.0,94,0.00,,,0.00,WUHU216DAVISVP2,2013-04-25 05:06:00,
2013-04-25 01:11:00,63.4,61.6,30.09,SW,215,3.0,6.0,94,0.00,,,0.00,WUHU216DAVISVP2,2013-04-25 05:11:00,
2013-04-25 01:16:00,63.4,61.9,30.08,SSW,206,6.0,6.0,95,0.00,,,0.00,WUHU216DAVISVP2,2013-04-25 05:16:00,
2013-04-25 01:21:00,63.4,61.9,30.08,SW,226,6.0,6.0,95,0.00,,,0.00,WUHU216DAVISVP2,2013-04-25 05:21:00,
2013-04-25 01:26:00,63.4,61.9,30.08,SSW,210,3.0,6.0,95,0.00,,,0.00,WUHU216DAVISVP2,2013-04-25 05:26:00,
2013-04-25 01:31:00,63.4,61.9,30.08,SSW,210,3.0,6.0,95,0.00,,,0.00,WUHU216DAVISVP2,2013-04-25 05:31:00,
2013-04-25 01:36:00,63.4,61.9,30.08,SSW,203,3.0,6.0,95,0.00,,,0.00,WUHU216DAVISVP2,2013-04-25 05:36:00,
2013-04-25 01:41:00,63.4,61.9,30.08,SSW,197,6.0,6.0,95,0.00,,,0.00,WUHU216DAVISVP2,2013-04-25 05:41:00,
2013-04-25 01:46:00,63.4,61.9,30.07,SSW,212,3.0,6.0,95,0.00,,,0.00,WUHU216DAVISVP2,2013-04-25 05:46:00,
2013-04-25 01:51:00,63.4,61.9,30.08,SW,218,3.0,6.0,95,0.00,,,0.00,WUHU216DAVISVP2,2013-04-25 05:51:00,
2013-04-25 01:56:00,63.4,61.9,30.08,SSW,212,3.0,6.0,95,0.00,,,0.00,WUHU216DAVISVP2,2013-04-25 05:56:00,
2013-04-25 02:01:00,63.4,61.9,30.08,SSW,204,3.0,6.0,95,0.00,,,0.00,WUHU216DAVISVP2,2013-04-25 06:01:00,
2013-04-25 02:06:00,63.3,61.8,30.08,SSW,210,3.0,6.0,95,0.00,,,0.00,WUHU216DAVISVP2,2013-04-25 06:06:00,
2013-04-25 02:11:00,63.3,61.8,30.08,SSW,212,3.0,6.0,95,0.00,,,0.00,WUHU216DAVISVP2,2013-04-25 06:11:00,
2013-04-25 02:16:00,63.4,61.9,30.07,SW,224,0.0,6.0,95,0.00,,,0.00,WUHU216DAVISVP2,2013-04-25 06:16:00,
2013-04-25 02:21:00,63.3,61.8,30.08,SSW,210,0.0,6.0,95,0.00,,,0.00,WUHU216DAVISVP2,2013-04-25 06:21:00,
2013-04-25 02:26:00,63.4,61.9,30.07,SW,225,3.0,6.0,95,0.00,,,0.00,WUHU216DAVISVP2,2013-04-25 06:26:00,
2013-04-25 02:31:00,63.4,61.9,30.07,SSW,200,3.0,6.0,95,0.00,,,0.00,WUHU216DAVISVP2,2013-04-25 06:31:00,
2013-04-25 02:36:00,63.3,61.8,30.07,SSW,212,3.0,6.0,95,0.00,,,0.00,WUHU216DAVISVP2,2013-04-25 06:36:00,
2013-04-25 02:41:00,63.3,61.8,30.07,SW,215,3.0,6.0,95,0.00,,,0.00,WUHU216DAVISVP2,2013-04-25 06:41:00,
2013-04-25 02:46:00,63.2,61.7,30.07,SW,222,3.0,6.0,95,0.00,,,0.00,WUHU216DAVISVP2,2013-04-25 06:46:00,
2013-04-25 02:51:00,63.2,62.0,30.07,SW,221,3.0,6.0,96,0.00,,,0.00,WUHU216DAVISVP2,2013-04-25 06:51:00,
2013-04-25 02:56:00,63.2,62.0,30.07,SW,218,6.0,6.0,96,0.00,,,0.00,WUHU216DAVISVP2,2013-04-25 06:56:00,
2013-04-25 03:01:00,63.2,62.0,30.08,SW,226,3.0,6.0,96,0.00,,,0.00,WUHU216DAVISVP2,2013-04-25 07:01:00,
2013-04-25 03:06:00,63.2,62.0,30.08,SW,219,0.0,9.0,96,0.00,,,0.00,WUHU216DAVISVP2,2013-04-25 07:06:00,
2013-04-25 03:11:00,63.2,62.0,30.08,SW,233,3.0,9.0,96,0.00,,,0.00,WUHU216DAVISVP2,2013-04-25 07:11:00,
2013-04-25 03:16:00,63.2,62.0,30.08,SSW,200,0.0,6.0,96,0.00,,,0.00,WUHU216DAVISVP2,2013-04-25 07:16:00,
2013-04-25 03:21:00,63.2,62.0,30.08,SW,226,3.0,9.0,96,0.00,,,0.00,WUHU216DAVISVP2,2013-04-25 07:21:00,
2013-04-25 03:26:00,63.2,62.0,30.08,SW,231,3.0,9.0,96,0.00,,,0.00,WUHU216DAVISVP2,2013-04-25 07:26:00,
2013-04-25 03:31:00,63.3,62.1,30.08,SW,226,3.0,6.0,96,0.00,,,0.00,WUHU216DAVISVP2,2013-04-25 07:31:00,
2013-04-25 03:36:00,63.3,62.1,30.08,SW,233,6.0,9.0,96,0.00,,,0.00,WUHU216DAVISVP2,2013-04-25 07:36:00,
2013-04-25 03:41:00,63.3,62.1,30.08,SW,235,6.0,9.0,96,0.00,,,0.00,WUHU216DAVISVP2,2013-04-25 07:41:00,
2013-04-25 03:46:00,63.3,62.1,30.08,WSW,238,3.0,6.0,96,0.00,,,0.00,WUHU216DAVISVP2,2013-04-25 07:46:00,
2013-04-25 03:51:00,63.3,62.1,30.08,SW,224,3.0,6.0,96,0.00,,,0.00,WUHU216DAVISVP2,2013-04-25 07:51:00,
2013-04-25 03:56:00,63.3,62.1,30.08,SW,228,3.0,6.0,96,0.00,,,0.00,WUHU216DAVISVP2,2013-04-25 07:56:00,
2013-04-25 04:01:00,63.3,62.1,30.08,SW,215,3.0,6.0,96,0.00,,,0.00,WUHU216DAVISVP2,2013-04-25 08:01:00,
2013-04-25 04:06:00,63.2,62.0,30.08,WSW,239,0.0,6.0,96,0.00,,,0.00,WUHU216DAVISVP2,2013-04-25 08:06:00,
2013-04-25 04:11:00,63.2,62.0,30.09,SW,222,0.0,6.0,96,0.00,,,0.00,WUHU216DAVISVP2,2013-04-25 08:11:00,
2013-04-25 04:16:00,63.1,61.9,30.08,SW,222,0.0,6.0,96,0.00,,,0.00,WUHU216DAVISVP2,2013-04-25 08:16:00,
2013-04-25 04:21:00,63.0,61.8,30.09,SW,222,0.0,3.0,96,0.00,,,0.00,WUHU216DAVISVP2,2013-04-25 08:21:00,
2013-04-25 04:26:00,62.9,61.7,30.09,SW,222,0.0,2.0,96,0.00,,,0.00,WUHU216DAVISVP2,2013-04-25 08:26:00,
2013-04-25 04:31:00,62.9,61.7,30.09,SW,222,0.0,2.0,96,0.00,,,0.00,WUHU216DAVISVP2,2013-04-25 08:31:00,
2013-04-25 04:36:00,62.8,61.6,30.09,SW,221,0.0,0.0,96,0.00,,,0.00,WUHU216DAVISVP2,2013-04-25 08:36:00,
2013-04-25 04:42:00,62.8,61.6,30.09,SW,218,0.0,0.0,96,0.00,,,0.00,WUHU216DAVISVP2,2013-04-25 08:42:00,
2013-04-25 04:47:00,62.9,61.7,30.09,SW,224,0.0,0.0,96,0.00,,,0.00,WUHU216DAVISVP2,2013-04-25 08:47:00,
2013-04-25 04:52:00,63.0,61.8,30.09,SW,219,0.0,0.0,96,0.00,,,0.00,WUHU216DAVISVP2,2013-04-25 08:52:00,
2013-04-25 04:57:00,63.1,61.9,30.09,SW,222,0.0,0.0,96,0.00,,,0.00,WUHU216DAVISVP2,2013-04-25 08:57:00,
2013-04-25 05:02:00,63.2,62.0,30.09,SW,219,0.0,0.0,96,0.00,,,0.00,WUHU216DAVISVP2,2013-04-25 09:02:00,
2013-04-25 05:07:00,63.2,62.0,30.09,SW,221,0.0,0.0,96,0.00,,,0.00,WUHU216DAVISVP2,2013-04-25 09:07:00,
2013-04-25 05:12:00,63.3,61.8,30.10,SW,233,6.0,6.0,95,0.00,,,0.00,WUHU216DAVISVP2,2013-04-25 09:12:00,
2013-04-25 05:17:00,63.4,61.9,30.10,SW,221,3.0,6.0,95,0.00,,,0.00,WUHU216DAVISVP2,2013-04-25 09:17:00,
2013-04-25 05:22:00,63.4,61.9,30.10,SW,215,0.0,4.0,95,0.00,,,0.00,WUHU216DAVISVP2,2013-04-25 09:22:00,
2013-04-25 05:27:00,63.4,61.9,30.10,SW,216,0.0,4.0,95,0.00,,,0.00,WUHU216DAVISVP2,2013-04-25 09:27:00,
2013-04-25 05:32:00,63.3,61.8,30.10,SW,216,0.0,2.0,95,0.00,,,0.00,WUHU216DAVISVP2,2013-04-25 09:32:00,
2013-04-25 05:37:00,63.3,61.8,30.10,SSW,210,0.0,3.0,95,0.00,,,0.00,WUHU216DAVISVP2,2013-04-25 09:37:00,
2013-04-25 05:42:00,63.3,61.8,30.10,SW,222,0.0,3.0,95,0.00,,,0.00,WUHU216DAVISVP2,2013-04-25 09:42:00,
2013-04-25 05:47:00,63.3,61.8,30.10,SW,222,0.0,2.0,95,0.00,,,0.00,WUHU216DAVISVP2,2013-04-25 09:47:00,
2013-04-25 05:52:00,63.3,61.8,30.11,SW,222,0.0,2.0,95,0.00,,,0.00,WUHU216DAVISVP2,2013-04-25 09:52:00,
2013-04-25 05:57:00,63.2,61.7,30.11,SW,224,0.0,3.0,95,0.00,,,0.00,WUHU216DAVISVP2,2013-04-25 09:57:00,
2013-04-25 06:02:00,63.2,61.7,30.11,SW,224,0.0,3.0,95,0.00,,,0.00,WUHU216DAVISVP2,2013-04-25 10:02:00,
2013-04-25 06:07:00,63.0,61.5,30.11,SW,224,0.0,3.0,95,0.00,,,0.00,WUHU216DAVISVP2,2013-04-25 10:07:00,
2013-04-25 06:12:00,63.0,61.5,30.11,SW,224,0.0,3.0,95,0.00,,,0.00,WUHU216DAVISVP2,2013-04-25 10:12:00,
2013-04-25 06:17:00,62.9,61.4,30.12,SW,224,0.0,3.0,95,0.00,,,0.00,WUHU216DAVISVP2,2013-04-25 10:17:00,
2013-04-25 06:22:00,62.7,61.2,30.12,SW,223,0.0,2.0,95,0.00,,,0.00,WUHU216DAVISVP2,2013-04-25 10:22:00,
2013-04-25 06:27:00,62.6,61.1,30.12,SW,224,0.0,2.0,95,0.00,,,0.00,WUHU216DAVISVP2,2013-04-25 10:27:00,
2013-04-25 06:32:00,62.3,60.8,30.12,SW,224,0.0,0.0,95,0.00,,,0.00,WUHU216DAVISVP2,2013-04-25 10:32:00,
2013-04-25 06:37:00,62.3,60.8,30.12,SW,224,0.0,0.0,95,0.00,,,0.00,WUHU216DAVISVP2,2013-04-25 10:37:00,
2013-04-25 06:42:00,62.2,60.8,30.12,SW,224,0.0,0.0,95,0.00,,,0.00,WUHU216DAVISVP2,2013-04-25 10:42:00,
2013-04-25 06:47:00,62.1,60.7,30.12,SW,224,0.0,0.0,95,0.00,,,0.00,WUHU216DAVISVP2,2013-04-25 10:47:00,
2013-04-25 06:52:00,62.0,60.6,30.13,SW,223,0.0,0.0,95,0.00,,,0.00,WUHU216DAVISVP2,2013-04-25 10:52:00,
2013-04-25 06:57:00,62.0,60.6,30.13,SW,224,0.0,0.0,95,0.00,,,0.00,WUHU216DAVISVP2,2013-04-25 10:57:00,
2013-04-25 07:02:00,62.0,60.8,30.13,SW,224,0.0,0.0,96,0.00,,,0.00,WUHU216DAVISVP2,2013-04-25 11:02:00,
2013-04-25 07:07:00,62.0,60.8,30.13,SW,224,0.0,0.0,96,0.00,,,0.00,WUHU216DAVISVP2,2013-04-25 11:07:00,
2013-04-25 07:12:00,62.2,61.0,30.13,SW,224,0.0,0.0,96,0.00,,,0.00,WUHU216DAVISVP2,2013-04-25 11:12:00,
2013-04-25 07:17:00,62.5,61.3,30.13,SW,222,0.0,3.0,96,0.00,,,0.00,WUHU216DAVISVP2,2013-04-25 11:17:00,
2013-04-25 07:22:00,62.6,61.4,30.13,SW,222,0.0,3.0,96,0.00,,,0.00,WUHU216DAVISVP2,2013-04-25 11:22:00,
2013-04-25 07:27:00,62.7,61.5,30.14,SW,222,0.0,2.0,96,0.00,,,0.00,WUHU216DAVISVP2,2013-04-25 11:27:00,
2013-04-25 07:32:00,62.8,61.6,30.14,SW,222,0.0,2.0,96,0.00,,,0.00,WUHU216DAVISVP2,2013-04-25 11:32:00,
2013-04-25 07:37:00,62.9,61.7,30.14,SW,222,0.0,0.0,96,0.00,,,0.00,WUHU216DAVISVP2,2013-04-25 11:37:00,
2013-04-25 07:42:00,62.9,61.7,30.14,SW,221,0.0,0.0,96,0.00,,,0.00,WUHU216DAVISVP2,2013-04-25 11:42:00,
2013-04-25 07:47:00,63.0,61.8,30.14,SW,222,0.0,0.0,96,0.00,,,0.00,WUHU216DAVISVP2,2013-04-25 11:47:00,
2013-04-25 07:52:00,63.2,62.0,30.14,SW,221,0.0,0.0,96,0.00,,,0.00,WUHU216DAVISVP2,2013-04-25 11:52:00,
2013-04-25 07:57:00,63.3,62.1,30.14,SW,222,0.0,0.0,96,0.00,,,0.00,WUHU216DAVISVP2,2013-04-25 11:57:00,
2013-04-25 08:02:00,63.5,62.3,30.14,SW,222,0.0,0.0,96,0.00,,,0.00,WUHU216DAVISVP2,2013-04-25 12:02:00,
2013-04-25 08:07:00,63.7,62.5,30.14,SW,222,0.0,0.0,96,0.00,,,0.00,WUHU216DAVISVP2,2013-04-25 12:07:00,
2013-04-25 08:12:00,63.9,62.7,30.14,SW,222,0.0,0.0,96,0.00,,,0.00,WUHU216DAVISVP2,2013-04-25 12:12:00,
2013-04-25 08:17:00,64.1,62.9,30.15,SW,222,0.0,0.0,96,0.00,,,0.00,WUHU216DAVISVP2,2013-04-25 12:17:00,
2013-04-25 08:22:00,64.3,63.1,30.15,SW,221,0.0,0.0,96,0.00,,,0.00,WUHU216DAVISVP2,2013-04-25 12:22:00,
2013-04-25 08:27:00,64.5,63.3,30.15,SW,222,0.0,0.0,96,0.00,,,0.00,WUHU216DAVISVP2,2013-04-25 12:27:00,
2013-04-25 08:32:00,64.7,63.2,30.15,SW,222,0.0,0.0,95,0.00,,,0.00,WUHU216DAVISVP2,2013-04-25 12:32:00,
2013-04-25 08:37:00,64.9,63.4,30.15,SW,222,0.0,0.0,95,0.00,,,0.00,WUHU216DAVISVP2,2013-04-25 12:37:00,
2013-04-25 08:42:00,65.0,63.2,30.15,SW,222,0.0,0.0,94,0.00,,,0.00,WUHU216DAVISVP2,2013-04-25 12:42:00,
2013-04-25 08:47:00,65.1,63.3,30.15,SW,221,0.0,0.0,94,0.00,,,0.00,WUHU216DAVISVP2,2013-04-25 12:47:00,
2013-04-25 08:52:00,65.2,63.1,30.15,SW,233,0.0,0.0,93,0.00,,,0.00,WUHU216DAVISVP2,2013-04-25 12:52:00,
2013-04-25 08:57:00,65.3,63.2,30.16,NW,321,0.0,0.0,93,0.00,,,0.00,WUHU216DAVISVP2,2013-04-25 12:57:00,
2013-04-25 09:02:00,65.4,63.3,30.16,NW,321,0.0,0.0,93,0.00,,,0.00,WUHU216DAVISVP2,2013-04-25 13:02:00,
2013-04-25 09:07:00,65.6,63.2,30.16,NW,322,0.0,4.0,92,0.00,,,0.00,WUHU216DAVISVP2,2013-04-25 13:07:00,
2013-04-25 09:12:00,65.7,63.3,30.16,WNW,292,3.0,6.0,92,0.00,,,0.00,WUHU216DAVISVP2,2013-04-25 13:12:00,
2013-04-25 09:17:00,66.0,63.3,30.16,WNW,302,0.0,6.0,91,0.00,,,0.00,WUHU216DAVISVP2,2013-04-25 13:17:00,
2013-04-25 09:22:00,66.6,63.9,30.16,WNW,291,0.0,6.0,91,0.00,,,0.00,WUHU216DAVISVP2,2013-04-25 13:22:00,
2013-04-25 09:27:00,66.7,63.3,30.16,NNW,335,3.0,9.0,89,0.00,,,0.00,WUHU216DAVISVP2,2013-04-25 13:27:00,
2013-04-25 09:32:00,66.8,63.1,30.16,WNW,303,3.0,9.0,88,0.00,,,0.00,WUHU216DAVISVP2,2013-04-25 13:32:00,
2013-04-25 09:37:00,67.3,63.3,30.17,WSW,248,3.0,9.0,87,0.00,,,0.00,WUHU216DAVISVP2,2013-04-25 13:37:00,
2013-04-25 09:42:00,68.1,63.8,30.16,NW,311,3.0,9.0,86,0.00,,,0.00,WUHU216DAVISVP2,2013-04-25 13:42:00,
2013-04-25 09:47:00,68.6,63.9,30.16,NNW,330,3.0,9.0,85,0.00,,,0.00,WUHU216DAVISVP2,2013-04-25 13:47:00,
2013-04-25 09:52:00,68.9,63.6,30.16,NW,322,9.0,9.0,83,0.00,,,0.00,WUHU216DAVISVP2,2013-04-25 13:52:00,
2013-04-25 09:57:00,68.8,63.1,30.16,NNW,330,9.0,12.0,82,0.00,,,0.00,WUHU216DAVISVP2,2013-04-25 13:57:00,
2013-04-25 10:02:00,68.6,62.9,30.16,NW,318,3.0,12.0,82,0.00,,,0.00,WUHU216DAVISVP2,2013-04-25 14:02:00,
2013-04-25 10:07:00,68.5,63.2,30.16,NW,318,3.0,9.0,83,0.00,,,0.00,WUHU216DAVISVP2,2013-04-25 14:07:00,
2013-04-25 10:12:00,68.4,63.1,30.16,NW,318,0.0,9.0,83,0.00,,,0.00,WUHU216DAVISVP2,2013-04-25 14:12:00,
2013-04-25 10:17:00,69.0,63.7,30.16,West,281,3.0,9.0,83,0.00,,,0.00,WUHU216DAVISVP2,2013-04-25 14:17:00,
2013-04-25 10:22:00,69.6,63.6,30.16,NW,319,12.0,12.0,81,0.00,,,0.00,WUHU216DAVISVP2,2013-04-25 14:22:00,
2013-04-25 10:27:00,69.8,63.1,30.16,NW,325,3.0,12.0,79,0.00,,,0.00,WUHU216DAVISVP2,2013-04-25 14:27:00,
2013-04-25 10:32:00,69.7,63.3,30.16,NW,305,3.0,9.0,80,0.00,,,0.00,WUHU216DAVISVP2,2013-04-25 14:32:00,
2013-04-25 10:37:00,70.2,63.5,30.17,NW,319,0.0,9.0,79,0.00,,,0.00,WUHU216DAVISVP2,2013-04-25 14:37:00,
2013-04-25 10:42:00,70.9,63.8,30.17,NW,316,6.0,9.0,78,0.00,,,0.00,WUHU216DAVISVP2,2013-04-25 14:42:00,
2013-04-25 10:47:00,70.5,63.8,30.17,East,84,3.0,12.0,79,0.00,,,0.00,WUHU216DAVISVP2,2013-04-25 14:47:00,
2013-04-25 10:52:00,70.3,63.6,30.17,WNW,302,3.0,12.0,79,0.00,,,0.00,WUHU216DAVISVP2,2013-04-25 14:52:00,
2013-04-25 10:57:00,70.2,63.8,30.17,WNW,297,3.0,12.0,80,0.00,,,0.00,WUHU216DAVISVP2,2013-04-25 14:57:00,
2013-04-25 11:02:00,70.2,63.8,30.17,NW,310,3.0,12.0,80,0.00,,,0.00,WUHU216DAVISVP2,2013-04-25 15:02:00,
2013-04-25 11:07:00,71.0,64.6,30.17,ESE,105,0.0,12.0,80,0.00,,,0.00,WUHU216DAVISVP2,2013-04-25 15:07:00,
2013-04-25 11:12:00,72.0,64.5,30.17,ENE,75,3.0,8.0,77,0.00,,,0.00,WUHU216DAVISVP2,2013-04-25 15:12:00,
2013-04-25 11:17:00,71.9,64.1,30.17,East,86,6.0,9.0,76,0.00,,,0.00,WUHU216DAVISVP2,2013-04-25 15:17:00,
2013-04-25 11:22:00,71.6,64.1,30.17,WNW,297,3.0,9.0,77,0.00,,,0.00,WUHU216DAVISVP2,2013-04-25 15:22:00,
2013-04-25 11:27:00,71.8,64.7,30.17,ENE,65,0.0,9.0,78,0.00,,,0.00,WUHU216DAVISVP2,2013-04-25 15:27:00,
2013-04-25 11:32:00,72.3,64.8,30.17,East,85,3.0,9.0,77,0.00,,,0.00,WUHU216DAVISVP2,2013-04-25 15:32:00,
2013-04-25 11:37:00,72.1,64.3,30.17,ENE,70,3.0,9.0,76,0.00,,,0.00,WUHU216DAVISVP2,2013-04-25 15:37:00,
2013-04-25 11:42:00,72.1,64.3,30.17,West,259,0.0,6.0,76,0.00,,,0.00,WUHU216DAVISVP2,2013-04-25 15:42:00,
2013-04-25 11:47:00,72.5,64.6,30.17,NNE,18,0.0,6.0,76,0.00,,,0.00,WUHU216DAVISVP2,2013-04-25 15:47:00,
2013-04-25 11:52:00,73.3,65.0,30.16,NE,42,3.0,6.0,75,0.00,,,0.00,WUHU216DAVISVP2,2013-04-25 15:52:00,
2013-04-25 11:57:00,73.4,64.4,30.16,SW,235,3.0,6.0,73,0.00,,,0.00,WUHU216DAVISVP2,2013-04-25 15:57:00,
2013-04-25 12:02:00,73.5,64.5,30.17,ESE,113,3.0,6.0,73,0.00,,,0.00,WUHU216DAVISVP2,2013-04-25 16:02:00,
2013-04-25 12:07:00,74.2,65.2,30.17,SE,129,0.0,6.0,73,0.00,,,0.00,WUHU216DAVISVP2,2013-04-25 16:07:00,
2013-04-25 12:12:00,74.6,65.2,30.16,East,95,3.0,4.0,72,0.00,,,0.00,WUHU216DAVISVP2,2013-04-25 16:12:00,
2013-04-25 12:17:00,74.9,65.4,30.16,WSW,250,0.0,4.0,72,0.00,,,0.00,WUHU216DAVISVP2,2013-04-25 16:17:00,
2013-04-25 12:22:00,75.1,65.2,30.16,WNW,287,3.0,6.0,71,0.00,,,0.00,WUHU216DAVISVP2,2013-04-25 16:22:00,
2013-04-25 12:27:00,75.5,65.2,30.16,ESE,110,0.0,9.0,70,0.00,,,0.00,WUHU216DAVISVP2,2013-04-25 16:27:00,
2013-04-25 12:32:00,75.9,65.6,30.16,ENE,74,3.0,9.0,70,0.00,,,0.00,WUHU216DAVISVP2,2013-04-25 16:32:00,
2013-04-25 12:37:00,76.5,65.8,30.15,WNW,302,0.0,6.0,69,0.00,,,0.00,WUHU216DAVISVP2,2013-04-25 16:37:00,
2013-04-25 12:42:00,77.1,65.9,30.16,ESE,115,3.0,6.0,68,0.00,,,0.00,WUHU216DAVISVP2,2013-04-25 16:42:00,
2013-04-25 12:47:00,77.6,66.4,30.16,East,85,6.0,6.0,68,0.00,,,0.00,WUHU216DAVISVP2,2013-04-25 16:47:00,
2013-04-25 12:52:00,77.5,64.8,30.16,East,92,3.0,9.0,65,0.00,,,0.00,WUHU216DAVISVP2,2013-04-25 16:52:00,
2013-04-25 12:57:00,76.9,65.5,30.16,ENE,70,0.0,9.0,68,0.00,,,0.00,WUHU216DAVISVP2,2013-04-25 16:57:00,
2013-04-25 13:02:00,77.1,66.1,30.16,ESE,115,3.0,6.0,69,0.00,,,0.00,WUHU216DAVISVP2,2013-04-25 17:02:00,
2013-04-25 13:07:00,77.9,66.1,30.16,East,98,0.0,6.0,67,0.00,,,0.00,WUHU216DAVISVP2,2013-04-25 17:07:00,
2013-04-25 13:12:00,78.4,66.1,30.15,ESE,106,0.0,3.0,66,0.00,,,0.00,WUHU216DAVISVP2,2013-04-25 17:12:00,
2013-04-25 13:17:00,78.6,66.3,30.15,SE,124,0.0,6.0,66,0.00,,,0.00,WUHU216DAVISVP2,2013-04-25 17:17:00,
2013-04-25 13:22:00,79.0,66.7,30.15,NE,47,0.0,6.0,66,0.00,,,0.00,WUHU216DAVISVP2,2013-04-25 17:22:00,
2013-04-25 13:27:00,78.9,65.9,30.15,NE,54,0.0,6.0,64,0.00,,,0.00,WUHU216DAVISVP2,2013-04-25 17:27:00,
2013-04-25 13:32:00,79.3,66.8,30.15,SE,135,3.0,6.0,65,0.00,,,0.00,WUHU216DAVISVP2,2013-04-25 17:32:00,
2013-04-25 13:37:00,80.2,66.7,30.14,SE,131,3.0,6.0,63,0.00,,,0.00,WUHU216DAVISVP2,2013-04-25 17:37:00,
2013-04-25 13:42:00,81.1,68.0,30.14,SW,221,6.0,6.0,64,0.00,,,0.00,WUHU216DAVISVP2,2013-04-25 17:42:00,
2013-04-25 13:47:00,81.2,67.7,30.14,SW,228,6.0,6.0,63,0.00,,,0.00,WUHU216DAVISVP2,2013-04-25 17:47:00,
2013-04-25 13:52:00,80.3,67.3,30.15,SE,142,6.0,12.0,64,0.00,,,0.00,WUHU216DAVISVP2,2013-04-25 17:52:00,
2013-04-25 13:57:00,80.5,67.0,30.15,WSW,240,6.0,12.0,63,0.00,,,0.00,WUHU216DAVISVP2,2013-04-25 17:57:00,
2013-04-25 14:02:00,79.9,67.3,30.15,SSE,151,3.0,9.0,65,0.00,,,0.00,WUHU216DAVISVP2,2013-04-25 18:02:00,
2013-04-25 14:07:00,80.2,67.2,30.15,SW,235,9.0,9.0,64,0.00,,,0.00,WUHU216DAVISVP2,2013-04-25 18:07:00,
2013-04-25 14:12:00,79.6,66.3,30.15,SE,142,3.0,9.0,64,0.00,,,0.00,WUHU216DAVISVP2,2013-04-25 18:12:00,
2013-04-25 14:17:00,79.3,67.0,30.15,SSW,207,3.0,6.0,66,0.00,,,0.00,WUHU216DAVISVP2,2013-04-25 18:17:00,
2013-04-25 14:22:00,78.7,65.9,30.15,SW,236,9.0,9.0,65,0.00,,,0.00,WUHU216DAVISVP2,2013-04-25 18:22:00,
2013-04-25 14:27:00,77.4,65.1,30.16,SSW,204,3.0,12.0,66,0.00,,,0.00,WUHU216DAVISVP2,2013-04-25 18:27:00,
2013-04-25 14:32:00,75.7,65.4,30.16,WSW,245,3.0,12.0,70,0.00,,,0.00,WUHU216DAVISVP2,2013-04-25 18:32:00,
2013-04-25 14:37:00,74.6,65.9,30.16,SE,146,6.0,9.0,74,0.00,,,0.00,WUHU216DAVISVP2,2013-04-25 18:37:00,
2013-04-25 14:42:00,73.9,65.3,30.16,South,184,0.0,9.0,74,0.00,,,0.00,WUHU216DAVISVP2,2013-04-25 18:42:00,
2013-04-25 14:47:00,73.5,64.9,30.16,NNE,30,0.0,9.0,74,0.00,,,0.00,WUHU216DAVISVP2,2013-04-25 18:47:00,
2013-04-25 14:52:00,74.0,65.3,30.16,SW,232,6.0,9.0,74,0.00,,,0.00,WUHU216DAVISVP2,2013-04-25 18:52:00,
2013-04-25 14:57:00,74.8,66.5,30.16,South,185,3.0,9.0,75,0.00,,,0.00,WUHU216DAVISVP2,2013-04-25 18:57:00,
2013-04-25 15:02:00,75.0,65.5,30.15,ESE,103,3.0,9.0,72,0.00,,,0.00,WUHU216DAVISVP2,2013-04-25 19:02:00,
2013-04-25 15:07:00,73.7,64.7,30.16,SW,218,3.0,12.0,73,0.00,,,0.00,WUHU216DAVISVP2,2013-04-25 19:07:00,
2013-04-25 15:12:00,72.3,64.4,30.16,SW,215,3.0,12.0,76,0.00,,,0.00,WUHU216DAVISVP2,2013-04-25 19:12:00,
2013-04-25 15:17:00,71.4,65.3,30.15,SSE,155,0.0,12.0,81,0.01,,,0.01,WUHU216DAVISVP2,2013-04-25 19:17:00,
2013-04-25 15:22:00,70.6,65.9,30.15,SE,134,0.0,9.0,85,0.01,,,0.01,WUHU216DAVISVP2,2013-04-25 19:22:00,
2013-04-25 15:27:00,69.7,65.3,30.15,WSW,257,3.0,9.0,86,0.01,,,0.01,WUHU216DAVISVP2,2013-04-25 19:27:00,
2013-04-25 15:32:00,69.3,64.9,30.15,WSW,248,0.0,9.0,86,0.01,,,0.01,WUHU216DAVISVP2,2013-04-25 19:32:00,
2013-04-25 15:37:00,69.7,65.7,30.14,SE,131,3.0,12.0,87,0.01,,,0.01,WUHU216DAVISVP2,2013-04-25 19:37:00,
2013-04-25 15:42:00,70.3,66.2,30.14,ENE,74,3.0,12.0,87,0.01,,,0.01,WUHU216DAVISVP2,2013-04-25 19:42:00,
2013-04-25 15:47:00,70.5,65.1,30.14,North,11,3.0,9.0,83,0.01,,,0.01,WUHU216DAVISVP2,2013-04-25 19:47:00,
2013-04-25 15:52:00,70.9,64.8,30.14,SSW,212,0.0,9.0,81,0.01,,,0.01,WUHU216DAVISVP2,2013-04-25 19:52:00,
2013-04-25 15:57:00,71.5,64.6,30.14,SW,232,6.0,9.0,79,0.01,,,0.01,WUHU216DAVISVP2,2013-04-25 19:57:00,
2013-04-25 16:02:00,71.7,65.3,30.14,WSW,239,6.0,12.0,80,0.01,,,0.01,WUHU216DAVISVP2,2013-04-25 20:02:00,
2013-04-25 16:07:00,72.0,65.2,30.14,SE,135,3.0,12.0,79,0.01,,,0.01,WUHU216DAVISVP2,2013-04-25 20:07:00,
2013-04-25 16:12:00,72.1,63.9,30.14,SW,226,6.0,12.0,75,0.01,,,0.01,WUHU216DAVISVP2,2013-04-25 20:12:00,
2013-04-25 16:17:00,71.7,64.2,30.13,SW,223,0.0,12.0,77,0.00,,,0.01,WUHU216DAVISVP2,2013-04-25 20:17:00,
2013-04-25 16:22:00,71.6,63.8,30.13,SE,125,6.0,12.0,76,0.00,,,0.01,WUHU216DAVISVP2,2013-04-25 20:22:00,
2013-04-25 16:27:00,71.4,63.6,30.14,SSW,212,3.0,12.0,76,0.00,,,0.01,WUHU216DAVISVP2,2013-04-25 20:27:00,
2013-04-25 16:32:00,71.2,63.4,30.14,NW,311,0.0,12.0,76,0.00,,,0.01,WUHU216DAVISVP2,2013-04-25 20:32:00,
2013-04-25 16:37:00,71.0,64.3,30.14,NE,53,0.0,12.0,79,0.00,,,0.01,WUHU216DAVISVP2,2013-04-25 20:37:00,
2013-04-25 16:42:00,70.2,63.5,30.14,ENE,61,6.0,12.0,79,0.00,,,0.01,WUHU216DAVISVP2,2013-04-25 20:42:00,
2013-04-25 16:47:00,68.6,62.6,30.14,ENE,60,6.0,12.0,81,0.00,,,0.01,WUHU216DAVISVP2,2013-04-25 20:47:00,
2013-04-25 16:52:00,67.4,62.4,30.14,NE,41,3.0,12.0,84,0.00,,,0.01,WUHU216DAVISVP2,2013-04-25 20:52:00,
2013-04-25 16:57:00,66.6,62.0,30.14,ESE,105,9.0,12.0,85,0.00,,,0.01,WUHU216DAVISVP2,2013-04-25 20:57:00,
2013-04-25 17:02:00,65.6,61.6,30.14,East,82,3.0,12.0,87,0.03,,,0.04,WUHU216DAVISVP2,2013-04-25 21:02:00,
2013-04-25 17:07:00,65.0,61.7,30.15,ENE,58,0.0,12.0,89,0.04,,,0.05,WUHU216DAVISVP2,2013-04-25 21:07:00,
2013-04-25 17:12:00,64.5,61.5,30.16,SSE,164,0.0,8.0,90,0.07,,,0.08,WUHU216DAVISVP2,2013-04-25 21:12:00,
2013-04-25 17:17:00,63.9,61.2,30.16,NE,56,6.0,6.0,91,0.07,,,0.08,WUHU216DAVISVP2,2013-04-25 21:17:00,
2013-04-25 17:22:00,63.4,61.0,30.17,East,79,0.0,6.0,92,0.07,,,0.08,WUHU216DAVISVP2,2013-04-25 21:22:00,
2013-04-25 17:27:00,63.2,61.1,30.17,ENE,76,0.0,6.0,93,0.07,,,0.08,WUHU216DAVISVP2,2013-04-25 21:27:00,
2013-04-25 17:32:00,62.9,60.8,30.17,ENE,65,6.0,9.0,93,0.07,,,0.08,WUHU216DAVISVP2,2013-04-25 21:32:00,
2013-04-25 17:37:00,62.5,60.4,30.18,NE,43,0.0,9.0,93,0.08,,,0.09,WUHU216DAVISVP2,2013-04-25 21:37:00,
2013-04-25 17:42:00,62.3,60.2,30.18,NE,50,0.0,6.0,93,0.08,,,0.09,WUHU216DAVISVP2,2013-04-25 21:42:00,
2013-04-25 17:47:00,62.2,60.4,30.18,ENE,70,3.0,6.0,94,0.09,,,0.10,WUHU216DAVISVP2,2013-04-25 21:47:00,
2013-04-25 17:52:00,61.9,60.1,30.19,East,83,0.0,6.0,94,0.09,,,0.10,WUHU216DAVISVP2,2013-04-25 21:52:00,
2013-04-25 17:57:00,61.6,59.8,30.19,ESE,110,0.0,9.0,94,0.09,,,0.10,WUHU216DAVISVP2,2013-04-25 21:57:00,
2013-04-25 18:02:00,61.4,59.6,30.18,NNE,18,6.0,9.0,94,0.06,,,0.10,WUHU216DAVISVP2,2013-04-25 22:02:00,
2013-04-25 18:07:00,61.3,59.5,30.18,North,8,0.0,6.0,94,0.05,,,0.10,WUHU216DAVISVP2,2013-04-25 22:07:00,
2013-04-25 18:12:00,61.1,59.3,30.18,East,82,6.0,9.0,94,0.02,,,0.10,WUHU216DAVISVP2,2013-04-25 22:12:00,
2013-04-25 18:17:00,60.8,59.0,30.17,NNE,13,0.0,12.0,94,0.03,,,0.11,WUHU216DAVISVP2,2013-04-25 22:17:00,
2013-04-25 18:22:00,60.6,59.1,30.18,SSE,165,0.0,12.0,95,0.03,,,0.11,WUHU216DAVISVP2,2013-04-25 22:22:00,
2013-04-25 18:27:00,60.5,59.0,30.19,SE,139,0.0,9.0,95,0.03,,,0.11,WUHU216DAVISVP2,2013-04-25 22:27:00,
2013-04-25 18:32:00,60.2,58.4,30.20,ENE,65,6.0,8.0,94,0.03,,,0.11,WUHU216DAVISVP2,2013-04-25 22:32:00,
2013-04-25 18:37:00,59.7,57.9,30.19,East,79,0.0,12.0,94,0.02,,,0.11,WUHU216DAVISVP2,2013-04-25 22:37:00,
2013-04-25 18:42:00,59.5,57.7,30.20,ENE,73,6.0,12.0,94,0.02,,,0.11,WUHU216DAVISVP2,2013-04-25 22:42:00,
2013-04-25 18:47:00,59.3,57.5,30.20,SW,229,3.0,12.0,94,0.01,,,0.11,WUHU216DAVISVP2,2013-04-25 22:47:00,
2013-04-25 18:52:00,59.1,57.3,30.19,ENE,77,6.0,12.0,94,0.01,,,0.11,WUHU216DAVISVP2,2013-04-25 22:52:00,
2013-04-25 18:57:00,59.0,57.5,30.19,ENE,73,0.0,12.0,95,0.01,,,0.11,WUHU216DAVISVP2,2013-04-25 22:57:00,
2013-04-25 19:02:00,58.9,57.4,30.19,ENE,76,0.0,12.0,95,0.01,,,0.11,WUHU216DAVISVP2,2013-04-25 23:02:00,
2013-04-25 19:07:00,58.7,56.9,30.19,ENE,62,6.0,12.0,94,0.01,,,0.11,WUHU216DAVISVP2,2013-04-25 23:07:00,
2013-04-25 19:12:00,58.4,56.6,30.19,East,97,3.0,9.0,94,0.01,,,0.11,WUHU216DAVISVP2,2013-04-25 23:12:00,
2013-04-25 19:17:00,58.3,56.5,30.19,NNW,330,3.0,9.0,94,0.00,,,0.11,WUHU216DAVISVP2,2013-04-25 23:17:00,
2013-04-25 19:22:00,58.2,56.4,30.19,East,98,6.0,12.0,94,0.00,,,0.11,WUHU216DAVISVP2,2013-04-25 23:22:00,
2013-04-25 19:27:00,58.1,56.6,30.19,ENE,76,9.0,12.0,95,0.00,,,0.11,WUHU216DAVISVP2,2013-04-25 23:27:00,
2013-04-25 19:32:00,58.0,56.5,30.19,WNW,295,0.0,9.0,95,0.00,,,0.11,WUHU216DAVISVP2,2013-04-25 23:32:00,
2013-04-25 19:37:00,58.0,56.5,30.19,ENE,63,0.0,9.0,95,0.00,,,0.11,WUHU216DAVISVP2,2013-04-25 23:37:00,
2013-04-25 19:42:00,57.9,56.4,30.19,ENE,65,0.0,6.0,95,0.00,,,0.11,WUHU216DAVISVP2,2013-04-25 23:42:00,
2013-04-25 19:47:00,57.9,56.4,30.20,NNW,337,0.0,4.0,95,0.00,,,0.11,WUHU216DAVISVP2,2013-04-25 23:47:00,
2013-04-25 19:52:00,57.9,56.5,30.20,NNW,336,0.0,4.0,95,0.00,,,0.11,WUHU216DAVISVP2,2013-04-25 23:52:00,
2013-04-25 19:57:00,57.9,56.5,30.21,NNW,334,0.0,3.0,95,0.00,,,0.11,WUHU216DAVISVP2,2013-04-25 23:57:00,
2013-04-25 20:02:00,58.0,56.9,30.21,NNW,335,0.0,3.0,96,0.00,,,0.11,WUHU216DAVISVP2,2013-04-26 00:02:00,
2013-04-25 20:07:00,57.9,56.5,30.21,NNE,23,0.0,3.0,95,0.00,,,0.11,WUHU216DAVISVP2,2013-04-26 00:07:00,
2013-04-25 20:12:00,57.9,56.8,30.21,NNE,23,3.0,3.0,96,0.00,,,0.11,WUHU216DAVISVP2,2013-04-26 00:12:00,
2013-04-25 20:17:00,57.9,56.7,30.21,NNE,23,0.0,3.0,96,0.00,,,0.11,WUHU216DAVISVP2,2013-04-26 00:17:00,
2013-04-25 20:23:00,57.8,56.6,30.21,NNE,23,3.0,3.0,96,0.00,,,0.11,WUHU216DAVISVP2,2013-04-26 00:23:00,
2013-04-25 20:28:00,57.7,56.5,30.21,NNE,30,3.0,4.0,96,0.00,,,0.11,WUHU216DAVISVP2,2013-04-26 00:28:00,
2013-04-25 20:33:00,57.5,56.0,30.21,NE,34,3.0,6.0,95,0.00,,,0.11,WUHU216DAVISVP2,2013-04-26 00:33:00,
2013-04-25 20:38:00,57.5,56.0,30.21,ENE,70,0.0,6.0,95,0.00,,,0.11,WUHU216DAVISVP2,2013-04-26 00:38:00,
2013-04-25 20:43:00,57.4,55.9,30.22,ENE,70,0.0,4.0,95,0.00,,,0.11,WUHU216DAVISVP2,2013-04-26 00:43:00,
2013-04-25 20:48:00,57.3,55.8,30.21,ENE,70,3.0,3.0,95,0.00,,,0.11,WUHU216DAVISVP2,2013-04-26 00:48:00,
2013-04-25 20:53:00,57.1,55.6,30.22,ENE,69,0.0,3.0,95,0.00,,,0.11,WUHU216DAVISVP2,2013-04-26 00:53:00,
2013-04-25 20:58:00,57.1,55.9,30.22,ENE,69,3.0,3.0,96,0.00,,,0.11,WUHU216DAVISVP2,2013-04-26 00:58:00,
2013-04-25 21:03:00,57.1,56.0,30.22,ENE,69,0.0,3.0,96,0.00,,,0.11,WUHU216DAVISVP2,2013-04-26 01:03:00,
2013-04-25 21:08:00,57.0,55.9,30.22,ENE,70,0.0,3.0,96,0.00,,,0.11,WUHU216DAVISVP2,2013-04-26 01:08:00,
2013-04-25 21:13:00,56.9,55.7,30.22,East,101,0.0,3.0,96,0.00,,,0.11,WUHU216DAVISVP2,2013-04-26 01:13:00,
2013-04-25 21:18:00,56.9,55.7,30.22,East,101,3.0,3.0,96,0.00,,,0.11,WUHU216DAVISVP2,2013-04-26 01:18:00,
2013-04-25 21:23:00,56.8,55.6,30.23,East,101,0.0,3.0,96,0.00,,,0.11,WUHU216DAVISVP2,2013-04-26 01:23:00,
2013-04-25 21:28:00,56.7,55.5,30.23,NE,41,0.0,3.0,96,0.00,,,0.11,WUHU216DAVISVP2,2013-04-26 01:28:00,
2013-04-25 21:33:00,56.6,55.4,30.23,NE,40,0.0,3.0,96,0.00,,,0.11,WUHU216DAVISVP2,2013-04-26 01:33:00,
2013-04-25 21:38:00,56.5,55.3,30.23,WSW,253,0.0,3.0,96,0.00,,,0.11,WUHU216DAVISVP2,2013-04-26 01:38:00,
2013-04-25 21:43:00,56.4,55.2,30.24,West,269,0.0,6.0,96,0.00,,,0.11,WUHU216DAVISVP2,2013-04-26 01:43:00,
2013-04-25 21:48:00,56.2,55.0,30.24,West,269,0.0,6.0,96,0.00,,,0.11,WUHU216DAVISVP2,2013-04-26 01:48:00,
2013-04-25 21:53:00,56.1,54.9,30.23,East,89,3.0,6.0,96,0.00,,,0.11,WUHU216DAVISVP2,2013-04-26 01:53:00,
2013-04-25 21:58:00,56.1,54.9,30.24,East,88,0.0,6.0,96,0.00,,,0.11,WUHU216DAVISVP2,2013-04-26 01:58:00,
2013-04-25 22:03:00,56.0,54.8,30.23,East,91,0.0,6.0,96,0.00,,,0.11,WUHU216DAVISVP2,2013-04-26 02:03:00,
2013-04-25 22:08:00,56.0,54.8,30.24,West,262,3.0,6.0,96,0.00,,,0.11,WUHU216DAVISVP2,2013-04-26 02:08:00,
2013-04-25 22:13:00,55.9,54.7,30.24,WSW,258,0.0,6.0,96,0.00,,,0.11,WUHU216DAVISVP2,2013-04-26 02:13:00,
2013-04-25 22:18:00,55.8,54.6,30.24,East,93,0.0,6.0,96,0.00,,,0.11,WUHU216DAVISVP2,2013-04-26 02:18:00,
2013-04-25 22:23:00,55.7,54.5,30.24,East,94,3.0,6.0,96,0.00,,,0.11,WUHU216DAVISVP2,2013-04-26 02:23:00,
2013-04-25 22:28:00,55.7,54.5,30.24,NE,56,0.0,6.0,96,0.00,,,0.11,WUHU216DAVISVP2,2013-04-26 02:28:00,
2013-04-25 22:33:00,55.6,54.4,30.24,ENE,60,0.0,6.0,96,0.00,,,0.11,WUHU216DAVISVP2,2013-04-26 02:33:00,
2013-04-25 22:38:00,55.5,54.3,30.24,ENE,74,0.0,4.0,96,0.00,,,0.11,WUHU216DAVISVP2,2013-04-26 02:38:00,
2013-04-25 22:43:00,55.4,54.2,30.24,North,358,0.0,4.0,96,0.00,,,0.11,WUHU216DAVISVP2,2013-04-26 02:43:00,
2013-04-25 22:48:00,55.4,54.2,30.24,North,359,0.0,3.0,96,0.00,,,0.11,WUHU216DAVISVP2,2013-04-26 02:48:00,
2013-04-25 22:53:00,55.3,54.1,30.24,SSE,162,0.0,3.0,96,0.00,,,0.11,WUHU216DAVISVP2,2013-04-26 02:53:00,
2013-04-25 22:58:00,55.2,54.0,30.24,SE,139,0.0,3.0,96,0.00,,,0.11,WUHU216DAVISVP2,2013-04-26 02:58:00,
2013-04-25 23:03:00,55.1,53.9,30.24,SE,140,0.0,3.0,96,0.00,,,0.11,WUHU216DAVISVP2,2013-04-26 03:03:00,
2013-04-25 23:08:00,55.0,53.8,30.24,SE,140,0.0,2.0,96,0.00,,,0.11,WUHU216DAVISVP2,2013-04-26 03:08:00,
2013-04-25 23:13:00,54.9,53.8,30.24,SE,139,0.0,2.0,96,0.00,,,0.11,WUHU216DAVISVP2,2013-04-26 03:13:00,
2013-04-25 23:18:00,54.8,53.7,30.24,SE,139,0.0,3.0,96,0.00,,,0.11,WUHU216DAVISVP2,2013-04-26 03:18:00,
2013-04-25 23:23:00,54.7,53.5,30.24,SE,140,0.0,3.0,96,0.00,,,0.11,WUHU216DAVISVP2,2013-04-26 03:23:00,
2013-04-25 23:28:00,54.6,53.4,30.24,SE,140,0.0,3.0,96,0.00,,,0.11,WUHU216DAVISVP2,2013-04-26 03:28:00,
2013-04-25 23:33:00,54.5,53.3,30.24,SE,139,0.0,3.0,96,0.00,,,0.11,WUHU216DAVISVP2,2013-04-26 03:33:00,
2013-04-25 23:38:00,54.4,53.2,30.24,SE,140,0.0,3.0,96,0.00,,,0.11,WUHU216DAVISVP2,2013-04-26 03:38:00,
2013-04-25 23:43:00,54.3,53.1,30.25,SSW,193,0.0,3.0,96,0.00,,,0.11,WUHU216DAVISVP2,2013-04-26 03:43:00,
2013-04-25 23:48:00,54.3,53.1,30.25,SSW,193,0.0,2.0,96,0.00,,,0.11,WUHU216DAVISVP2,2013-04-26 03:48:00,
2013-04-25 23:53:00,54.2,53.0,30.24,SSW,193,0.0,2.0,96,0.00,,,0.11,WUHU216DAVISVP2,2013-04-26 03:53:00,
2013-04-25 23:58:00,54.1,53.2,30.24,SSW,193,0.0,2.0,97,0.00,,,0.11,WUHU216DAVISVP2,2013-04-26 03:58:00,